Latest Weather Observations for Westmere

IDV60801

Issued at 6:32 pm EDT Tuesday 17 October 2017 (issued every 30 minutes, with the page automatically refreshed every 10 minutes)

About weather observations | Map of weather stations | Latest weather observations for VIC | Other Formats
Station Details ID: 089112 Name: WESTMERE Lat: -37.71 Lon: 142.94 Height: 226.0 m
Data from the previous 72 hours. | See also: Recent months at Westmere
Date/Time
EDT
Temp
°C
App
Temp
°C
Dew
Point
°C
Rel
Hum
%
Delta-T
°C
Wind Press
QNH
hPa
Press
MSL
hPa
Rain since
9am
mm
Dir  Spd
km/h
Gust
km/h
Spd
kts
Gust
kts
17/06:30pm 24.6 24.6 14.1 52 6.2 NE 7 9 4 5 1019.4 1019.4 0.0
17/06:00pm 25.6 24.6 12.4 43 7.7 NNE 9 15 5 8 1019.3 1019.3 0.0
17/05:30pm 26.4 23.6 10.1 36 9.2 NNE 15 20 8 11 1019.4 1019.4 0.0
17/05:00pm 26.9 23.3 8.4 31 10.1 NNE 17 24 9 13 1019.5 1019.5 0.0
17/04:30pm 27.4 24.2 8.3 30 10.5 NNE 15 24 8 13 1019.7 1019.7 0.0
17/04:00pm 27.7 24.3 9.0 31 10.4 NNE 17 28 9 15 1019.9 1019.9 0.0
17/03:30pm 27.7 23.2 7.0 27 11.1 N 20 30 11 16 1020.1 1020.1 0.0
17/03:00pm 27.9 23.8 7.7 28 11.0 N 19 30 10 16 1020.3 1020.3 0.0
17/02:30pm 28.1 24.1 6.8 26 11.4 N 17 26 9 14 1020.6 1020.6 0.0
17/02:00pm 27.6 23.7 8.5 30 10.5 N 19 30 10 16 1020.8 1020.8 0.0
17/01:30pm 27.5 25.7 10.7 35 9.6 N 11 17 6 9 1020.9 1020.9 0.0
17/01:00pm 26.9 22.9 8.4 31 10.1 N 19 28 10 15 1021.2 1021.3 0.0
17/12:30pm 26.7 23.8 9.5 34 9.6 N 15 22 8 12 1021.5 1021.6 0.0
17/12:00pm 25.7 23.0 10.3 38 8.6 N 15 20 8 11 1021.9 1021.9 0.0
17/11:30am 24.9 21.5 11.1 42 7.8 N 20 26 11 14 1022.1 1022.1 0.0
17/11:00am 24.1 20.0 10.0 41 7.8 N 22 32 12 17 1022.2 1022.2 0.0
17/10:30am 23.2 20.1 12.2 50 6.3 N 20 26 11 14 1022.3 1022.3 0.0
17/10:00am 21.7 18.4 11.7 53 5.6 NNE 20 28 11 15 1022.2 1022.2 0.0
17/09:30am 20.7 18.3 12.7 60 4.6 NNE 17 26 9 14 1022.0 1022.0 0.0
17/09:00am 18.9 15.6 11.0 60 4.3 NNE 19 26 10 14 1021.9 1021.9 0.0
17/08:30am 16.7 15.2 11.8 73 2.7 NNE 11 17 6 9 1022.0 1022.0 0.0
17/08:00am 13.9 11.4 10.9 82 1.6 N 15 17 8 9 1021.8 1021.8 0.0
17/07:30am 11.3 8.8 9.7 90 0.8 N 13 15 7 8 1021.4 1021.5 0.0
17/07:00am 10.6 7.5 9.0 90 0.8 N 15 19 8 10 1021.3 1021.4 0.0
17/06:30am 9.8 6.6 8.6 92 0.6 NNE 15 17 8 9 1020.9 1020.9 0.0
17/06:00am 9.2 6.4 8.4 95 0.4 NNE 13 17 7 9 1020.9 1020.9 0.0
17/05:30am 7.5 5.1 6.8 95 0.3 NNE 9 11 5 6 1020.8 1020.8 0.0
17/05:00am 7.3 4.8 6.4 94 0.4 NNE 9 13 5 7 1020.8 1020.8 0.0
17/04:30am 7.5 5.4 6.6 94 0.4 NNE 7 9 4 5 1020.8 1020.8 0.0
17/04:00am 8.5 7.2 7.7 95 0.4 N 4 6 2 3 1020.8 1020.8 0.0
17/03:30am 7.8 6.0 7.1 95 0.3 N 6 6 3 3 1020.9 1020.9 0.0
17/03:00am 7.5 5.9 6.4 93 0.5 NNE 4 7 2 4 1021.1 1021.2 0.0
17/02:30am 8.6 6.9 7.5 93 0.5 N 6 6 3 3 1021.3 1021.4 0.0
17/02:00am 9.7 7.7 8.8 94 0.4 N 9 9 5 5 1021.5 1021.6 0.0
17/01:30am 9.1 8.6 7.9 92 0.6 CALM 0 0 0 0 1021.9 1021.9 0.0
17/01:00am 9.8 8.3 8.6 92 0.6 ESE 6 7 3 4 1022.2 1022.2 0.0
17/12:30am 10.2 8.6 8.8 91 0.7 ESE 7 9 4 5 1022.4 1022.4 0.0
17/12:00am 10.8 9.4 9.4 91 0.7 E 7 9 4 5 1022.5 1022.5 0.0
 
Date/Time
EDT
Temp
°C
App
Temp
°C
Dew
Point
°C
Rel
Hum
%
Delta-T
°C
Wind Press
QNH
hPa
Press
MSL
hPa
Rain since
9am
mm
Dir  Spd
km/h
Gust
km/h
Spd
kts
Gust
kts
16/11:30pm 11.4 10.3 9.8 90 0.8 E 6 7 3 4 1022.5 1022.5 0.0
16/11:00pm 12.5 11.5 11.1 91 0.7 ENE 7 9 4 5 1022.6 1022.6 0.0
16/10:30pm 12.2 11.6 10.4 89 0.9 E 4 7 2 4 1022.8 1022.8 0.0
16/10:00pm 12.6 11.7 10.7 88 1.0 E 6 6 3 3 1022.6 1022.6 0.0
16/09:30pm 13.3 12.8 10.8 85 1.3 E 4 6 2 3 1022.5 1022.5 0.0
16/09:00pm 14.1 13.4 11.4 84 1.4 E 6 7 3 4 1022.4 1022.4 0.0
16/08:30pm 15.4 15.3 12.0 80 1.9 E 4 7 2 4 1022.1 1022.1 0.0
16/08:00pm 18.1 18.2 13.8 76 2.5 ESE 6 7 3 4 1021.9 1021.9 0.0
16/07:30pm 21.4 23.2 15.5 69 3.5 CALM 0 0 0 0 1021.5 1021.6 0.0
16/07:00pm 23.9 26.2 17.6 68 3.9 NNE 2 4 1 2 1021.5 1021.6 0.0
16/06:30pm 24.6 26.1 15.8 58 5.4 N 2 4 1 2 1021.5 1021.6 0.0
16/06:00pm 24.7 24.8 13.9 51 6.4 NNE 6 7 3 4 1021.5 1021.6 0.0
16/05:30pm 25.1 24.5 12.3 45 7.4 NNE 7 11 4 6 1021.5 1021.6 0.0
16/05:00pm 25.4 24.4 12.3 44 7.6 N 9 15 5 8 1021.5 1021.6 0.0
16/04:30pm 25.7 24.3 8.7 34 9.3 NNE 6 13 3 7 1021.6 1021.7 0.0
16/04:00pm 26.1 25.1 11.1 39 8.5 NNW 7 13 4 7 1021.9 1021.9 0.0
16/03:30pm 25.8 24.7 10.8 39 8.5 NNW 7 19 4 10 1022.2 1022.2 0.0
16/03:00pm 26.4 25.6 11.7 40 8.5 NNW 7 15 4 8 1022.5 1022.5 0.0
16/02:30pm 25.9 24.9 10.9 39 8.5 NNE 7 15 4 8 1022.7 1022.7 0.0
16/02:00pm 25.8 24.4 9.6 36 9.0 N 7 19 4 10 1022.8 1022.8 0.0
16/01:30pm 25.7 24.0 11.1 40 8.3 N 11 20 6 11 1023.0 1023.0 0.0
16/01:00pm 25.4 23.3 11.2 41 8.1 N 13 22 7 12 1023.3 1023.3 0.0
16/12:30pm 25.0 23.8 12.9 47 7.1 N 11 19 6 10 1023.6 1023.6 0.0
16/12:00pm 24.4 22.7 12.4 47 6.9 N 13 20 7 11 1024.0 1024.0 0.0
16/11:30am 23.8 23.4 14.2 55 5.7 N 9 17 5 9 1024.2 1024.2 0.0
16/11:00am 22.1 21.9 13.5 58 5.0 NNE 7 11 4 6 1024.4 1024.4 0.0
16/10:30am 20.6 20.7 14.0 66 3.9 NE 6 9 3 5 1024.5 1024.5 0.0
16/10:00am 17.6 18.0 13.7 78 2.2 ENE 4 7 2 4 1024.8 1024.9 0.0
16/09:30am 14.7 14.6 13.2 91 0.8 E 6 7 3 4 1024.7 1024.8 0.0
16/09:00am 12.3 12.2 12.1 99 0.1 NE 4 6 2 3 1024.8 1024.9 0.2
16/08:30am 9.7 8.5 9.7 100 0.0 NE 6 7 3 4 1024.8 1024.9 0.2
16/08:00am 7.8 6.2 7.8 100 0.0 ENE 6 7 3 4 1024.6 1024.6 0.2
16/07:30am 5.6 3.8 5.5 99 0.0 NE 4 6 2 3 1024.4 1024.4 0.2
16/07:00am 4.8 2.9 4.7 99 0.0 NE 4 4 2 2 1024.2 1024.2 0.2
16/06:30am 5.2 3.0 5.1 99 0.0 NE 6 6 3 3 1023.9 1023.9 0.0
16/06:00am 5.3 3.1 5.2 99 0.0 NE 6 7 3 4 1023.7 1023.7 0.0
16/05:30am 5.5 3.7 5.4 99 0.0 NNE 4 6 2 3 1023.5 1023.5 0.0
16/05:00am 6.2 4.2 6.1 99 0.0 E 6 7 3 4 1023.4 1023.4 0.0
16/04:30am 5.6 3.4 5.3 98 0.1 ESE 6 6 3 3 1023.5 1023.5 0.0
16/04:00am 5.6 3.8 5.3 98 0.1 ESE 4 6 2 3 1023.6 1023.6 0.0
16/03:30am 6.4 4.7 6.1 98 0.1 ESE 4 6 2 3 1023.9 1023.9 0.0
16/03:00am 6.0 3.9 5.7 98 0.1 ESE 6 6 3 3 1024.0 1024.0 0.0
16/02:30am 5.7 3.5 5.3 97 0.2 ESE 6 7 3 4 1024.1 1024.1 0.0
16/02:00am 5.2 3.2 4.6 96 0.3 SSE 4 7 2 4 1024.1 1024.1 0.0
16/01:30am 5.2 3.2 4.6 96 0.3 SSE 4 6 2 3 1024.3 1024.3 0.0
16/01:00am 5.1 3.5 4.4 95 0.3 SSE 2 4 1 2 1024.6 1024.6 0.0
16/12:30am 5.5 3.2 4.8 95 0.3 SSE 6 6 3 3 1024.7 1024.8 0.0
16/12:00am 6.2 4.0 5.5 95 0.3 SSE 6 7 3 4 1024.7 1024.8 0.0
 
Date/Time
EDT
Temp
°C
App
Temp
°C
Dew
Point
°C
Rel
Hum
%
Delta-T
°C
Wind Press
QNH
hPa
Press
MSL
hPa
Rain since
9am
mm
Dir  Spd
km/h
Gust
km/h
Spd
kts
Gust
kts
15/11:30pm 6.3 4.5 5.4 94 0.4 SSE 4 6 2 3 1024.7 1024.8 0.0
15/11:00pm 7.0 4.9 5.9 93 0.5 SE 6 6 3 3 1024.6 1024.6 0.0
15/10:30pm 7.6 5.6 6.4 92 0.6 SE 6 7 3 4 1024.6 1024.6 0.0
15/10:00pm 8.2 6.3 6.8 91 0.7 SSE 6 7 3 4 1024.6 1024.6 0.0
15/09:30pm 9.3 7.6 7.7 90 0.8 SSE 6 7 3 4 1024.7 1024.8 0.0
15/09:00pm 10.6 8.7 9.0 90 0.8 S 9 13 5 7 1024.6 1024.6 0.0
15/08:30pm 10.6 9.2 8.7 88 0.9 SE 6 6 3 3 1024.2 1024.2 0.0
15/08:00pm 12.3 10.6 9.7 84 1.3 SE 9 9 5 5 1024.0 1024.0 0.0
15/07:30pm 14.4 12.8 10.2 76 2.2 S 9 11 5 6 1023.7 1023.7 0.0
15/07:00pm 16.5 15.1 11.0 70 3.0 SSE 9 11 5 6 1023.5 1023.5 0.0
15/06:30pm 17.7 16.0 11.3 66 3.5 SE 11 17 6 9 1023.4 1023.4 0.0
15/06:00pm 18.3 15.8 11.1 63 3.9 SSE 15 20 8 11 1023.4 1023.4 0.0
15/05:30pm 18.9 16.6 10.5 58 4.6 SE 13 19 7 10 1023.4 1023.4 0.0
15/05:00pm 19.4 17.7 11.2 59 4.5 SSE 11 19 6 10 1023.4 1023.4 0.0
15/04:30pm 19.3 16.7 10.8 58 4.7 SE 15 20 8 11 1023.5 1023.5 0.0
15/04:00pm 19.4 17.2 10.7 57 4.7 SSE 13 19 7 10 1023.6 1023.6 0.0
15/03:30pm 19.5 17.4 11.3 59 4.5 SSE 13 17 7 9 1023.6 1023.6 0.0
15/03:00pm 19.3 17.2 11.1 59 4.5 SSE 13 24 7 13 1023.9 1023.9 0.0
15/02:30pm 19.2 17.1 11.0 59 4.5 SSE 13 20 7 11 1024.0 1024.0 0.0
15/02:00pm 18.6 17.2 9.4 55 4.9 ESE 7 15 4 8 1024.2 1024.2 0.0
15/01:30pm 18.1 16.7 9.7 58 4.5 SSE 7 17 4 9 1024.3 1024.3 0.0
15/01:00pm 17.5 16.4 9.9 61 4.0 SE 6 13 3 7 1024.3 1024.3 0.0
15/12:30pm 16.8 15.6 10.2 65 3.5 SSE 7 13 4 7 1024.8 1024.9 0.0
15/12:00pm 15.9 14.2 9.8 67 3.2 SE 9 17 5 9 1024.9 1025.0 0.0
15/11:30am 15.4 13.2 9.3 67 3.2 SE 11 17 6 9 1025.2 1025.3 0.0
15/11:00am 14.5 12.2 9.1 70 2.8 SE 11 17 6 9 1025.5 1025.6 0.0
15/10:30am 13.6 11.4 9.3 75 2.2 SE 11 17 6 9 1025.6 1025.7 0.0
15/10:00am 12.3 9.6 8.8 79 1.8 ESE 13 17 7 9 1025.6 1025.7 0.0
15/09:30am 11.3 9.0 9.0 86 1.2 ESE 11 17 6 9 1025.5 1025.6 0.0
15/09:00am 9.9 7.9 8.7 92 0.6 ESE 9 13 5 7 1025.5 1025.6 0.2
15/08:30am 8.5 7.7 8.2 98 0.1 SSE 2 4 1 2 1025.7 1025.8 0.2
15/08:00am 6.5 5.7 6.4 99 0.0 CALM 0 2 0 1 1025.6 1025.7 0.2
15/07:30am 3.1 1.6 2.8 98 0.1 CALM 0 0 0 0 1025.4 1025.5 0.2
15/07:00am 1.1 -0.8 0.7 97 0.1 CALM 0 0 0 0 1025.0 1025.1 0.2
15/06:30am 1.7 -0.1 1.3 97 0.2 CALM 0 0 0 0 1024.5 1024.5 0.2
15/06:00am 1.6 -0.2 1.2 97 0.2 CALM 0 0 0 0 1024.2 1024.2 0.2
15/05:30am 2.2 0.5 1.8 97 0.2 CALM 0 0 0 0 1024.2 1024.2 0.2
15/05:00am 2.3 0.6 1.9 97 0.2 CALM 0 0 0 0 1024.1 1024.1 0.2
15/04:30am 2.8 0.8 2.4 97 0.2 S 2 4 1 2 1023.9 1023.9 0.2
15/04:00am 2.7 0.3 2.3 97 0.2 S 4 4 2 2 1024.1 1024.1 0.2
15/03:30am 2.7 0.7 2.3 97 0.2 S 2 4 1 2 1024.2 1024.2 0.2
15/03:00am 3.5 1.3 3.1 97 0.2 S 4 4 2 2 1024.1 1024.1 0.2
15/02:30am 4.3 1.8 3.9 97 0.2 S 6 7 3 4 1024.3 1024.3 0.2
15/02:00am 3.9 1.4 3.5 97 0.2 S 6 6 3 3 1024.4 1024.4 0.2
15/01:30am 4.7 2.1 4.3 97 0.2 S 7 7 4 4 1024.8 1024.9 0.2
15/01:00am 4.7 2.3 4.1 96 0.3 S 6 6 3 3 1024.9 1025.0 0.2
15/12:30am 5.0 3.0 4.4 96 0.3 S 4 4 2 2 1025.1 1025.2 0.2
15/12:00am 5.5 3.2 4.8 95 0.3 S 6 6 3 3 1025.0 1025.1 0.2
 
Date/Time
EDT
Temp
°C
App
Temp
°C
Dew
Point
°C
Rel
Hum
%
Delta-T
°C
Wind Press
QNH
hPa
Press
MSL
hPa
Rain since
9am
mm
Dir  Spd
km/h
Gust
km/h
Spd
kts
Gust
kts
14/11:30pm 5.6 4.4 4.7 94 0.4 CALM 0 0 0 0 1025.2 1025.3 0.2
14/11:00pm 6.5 5.1 5.6 94 0.4 SSE 2 4 1 2 1025.2 1025.3 0.2
14/10:30pm 6.7 5.4 5.8 94 0.4 SSE 2 4 1 2 1025.2 1025.3 0.2
14/10:00pm 7.5 5.6 6.6 94 0.4 S 6 7 3 4 1025.3 1025.4 0.2
14/09:30pm 8.5 6.6 7.6 94 0.4 SSW 7 11 4 6 1025.2 1025.3 0.2
14/09:00pm 9.0 6.8 7.9 93 0.5 S 9 11 5 6 1025.2 1025.3 0.2
14/08:30pm 9.7 7.7 8.5 92 0.6 S 9 15 5 8 1025.1 1025.2 0.2
14/08:00pm 10.6 8.7 8.9 89 0.8 S 9 13 5 7 1024.9 1025.0 0.2
14/07:30pm 12.1 9.0 8.9 81 1.6 S 15 19 8 10 1024.7 1024.8 0.2
14/07:00pm 13.4 10.4 9.3 76 2.1 SSW 15 22 8 12 1024.4 1024.4 0.2

Other Formats:

Comma delimited format used in spreadsheet applications
http://www.bom.gov.au/fwo/IDV60801/IDV60801.95840.axf

JavaScript Object Notation format (JSON) in row-major order
http://www.bom.gov.au/fwo/IDV60801/IDV60801.95840.json